sensor_id;sensor_type;location;lat;lon;timestamp;P1;durP1;ratioP1;P2;durP2;ratioP2
21905;SDS011;11117;48.644;9.006;2023-12-20T00:00:55;1.60;;;1.20;;
21905;SDS011;11117;48.644;9.006;2023-12-20T00:03:20;1.53;;;1.00;;
21905;SDS011;11117;48.644;9.006;2023-12-20T00:05:47;1.43;;;1.10;;
21905;SDS011;11117;48.644;9.006;2023-12-20T00:08:12;1.37;;;1.00;;
21905;SDS011;11117;48.644;9.006;2023-12-20T00:10:38;1.90;;;1.30;;
21905;SDS011;11117;48.644;9.006;2023-12-20T00:13:04;1.23;;;1.13;;
21905;SDS011;11117;48.644;9.006;2023-12-20T00:15:29;2.50;;;1.10;;
21905;SDS011;11117;48.644;9.006;2023-12-20T00:17:55;1.67;;;1.20;;
21905;SDS011;11117;48.644;9.006;2023-12-20T00:20:20;1.30;;;1.10;;
21905;SDS011;11117;48.644;9.006;2023-12-20T00:22:46;1.30;;;1.20;;
21905;SDS011;11117;48.644;9.006;2023-12-20T00:25:11;2.73;;;1.17;;
21905;SDS011;11117;48.644;9.006;2023-12-20T00:27:37;3.87;;;1.03;;
21905;SDS011;11117;48.644;9.006;2023-12-20T00:30:04;0.93;;;0.80;;
21905;SDS011;11117;48.644;9.006;2023-12-20T00:32:30;1.73;;;1.00;;
21905;SDS011;11117;48.644;9.006;2023-12-20T00:34:55;1.40;;;0.90;;
21905;SDS011;11117;48.644;9.006;2023-12-20T00:37:22;1.57;;;1.20;;
21905;SDS011;11117;48.644;9.006;2023-12-20T00:39:48;2.03;;;1.20;;
21905;SDS011;11117;48.644;9.006;2023-12-20T00:42:13;1.57;;;1.17;;
21905;SDS011;11117;48.644;9.006;2023-12-20T00:44:39;3.23;;;1.63;;
21905;SDS011;11117;48.644;9.006;2023-12-20T00:47:04;2.40;;;1.70;;
21905;SDS011;11117;48.644;9.006;2023-12-20T00:49:30;1.43;;;1.23;;
21905;SDS011;11117;48.644;9.006;2023-12-20T00:51:55;1.33;;;1.20;;
21905;SDS011;11117;48.644;9.006;2023-12-20T00:54:21;1.20;;;0.90;;
21905;SDS011;11117;48.644;9.006;2023-12-20T00:56:46;1.13;;;0.90;;
21905;SDS011;11117;48.644;9.006;2023-12-20T00:59:12;1.20;;;1.10;;
21905;SDS011;11117;48.644;9.006;2023-12-20T01:01:38;1.90;;;1.17;;
21905;SDS011;11117;48.644;9.006;2023-12-20T01:04:03;1.07;;;0.97;;
21905;SDS011;11117;48.644;9.006;2023-12-20T01:06:29;1.63;;;1.30;;
21905;SDS011;11117;48.644;9.006;2023-12-20T01:08:56;2.03;;;1.20;;
21905;SDS011;11117;48.644;9.006;2023-12-20T01:11:21;3.20;;;1.20;;
21905;SDS011;11117;48.644;9.006;2023-12-20T01:13:47;5.13;;;1.20;;
21905;SDS011;11117;48.644;9.006;2023-12-20T01:16:12;2.50;;;1.40;;
21905;SDS011;11117;48.644;9.006;2023-12-20T01:18:38;1.40;;;1.23;;
21905;SDS011;11117;48.644;9.006;2023-12-20T01:21:03;3.73;;;1.50;;
21905;SDS011;11117;48.644;9.006;2023-12-20T01:23:29;1.80;;;1.30;;
21905;SDS011;11117;48.644;9.006;2023-12-20T01:25:58;2.23;;;1.20;;
21905;SDS011;11117;48.644;9.006;2023-12-20T01:28:24;1.30;;;1.20;;
21905;SDS011;11117;48.644;9.006;2023-12-20T01:30:49;1.67;;;1.40;;
21905;SDS011;11117;48.644;9.006;2023-12-20T01:33:15;1.50;;;1.30;;
21905;SDS011;11117;48.644;9.006;2023-12-20T01:35:40;2.60;;;1.10;;
21905;SDS011;11117;48.644;9.006;2023-12-20T01:38:06;1.77;;;1.20;;
21905;SDS011;11117;48.644;9.006;2023-12-20T01:40:32;2.20;;;1.20;;
21905;SDS011;11117;48.644;9.006;2023-12-20T01:43:01;2.10;;;1.20;;
21905;SDS011;11117;48.644;9.006;2023-12-20T01:45:27;3.13;;;1.03;;
21905;SDS011;11117;48.644;9.006;2023-12-20T01:47:54;2.43;;;1.10;;
21905;SDS011;11117;48.644;9.006;2023-12-20T01:50:21;1.60;;;1.03;;
21905;SDS011;11117;48.644;9.006;2023-12-20T01:52:46;1.07;;;1.00;;
21905;SDS011;11117;48.644;9.006;2023-12-20T01:55:13;1.37;;;1.07;;
21905;SDS011;11117;48.644;9.006;2023-12-20T01:57:39;1.20;;;1.10;;
21905;SDS011;11117;48.644;9.006;2023-12-20T02:00:09;0.90;;;0.90;;
21905;SDS011;11117;48.644;9.006;2023-12-20T02:02:39;1.07;;;0.93;;
21905;SDS011;11117;48.644;9.006;2023-12-20T02:05:06;0.80;;;0.80;;
21905;SDS011;11117;48.644;9.006;2023-12-20T02:07:32;2.30;;;0.97;;
21905;SDS011;11117;48.644;9.006;2023-12-20T02:09:57;1.67;;;1.00;;
21905;SDS011;11117;48.644;9.006;2023-12-20T02:12:26;1.10;;;0.80;;
21905;SDS011;11117;48.644;9.006;2023-12-20T02:14:51;1.53;;;0.70;;
21905;SDS011;11117;48.644;9.006;2023-12-20T02:17:17;1.00;;;0.80;;
21905;SDS011;11117;48.644;9.006;2023-12-20T02:19:43;1.20;;;0.87;;
21905;SDS011;11117;48.644;9.006;2023-12-20T02:22:09;0.60;;;0.60;;
21905;SDS011;11117;48.644;9.006;2023-12-20T02:24:35;0.73;;;0.70;;
21905;SDS011;11117;48.644;9.006;2023-12-20T02:27:01;1.57;;;1.00;;
21905;SDS011;11117;48.644;9.006;2023-12-20T02:29:27;2.40;;;1.80;;
21905;SDS011;11117;48.644;9.006;2023-12-20T02:31:52;2.57;;;0.80;;
21905;SDS011;11117;48.644;9.006;2023-12-20T02:34:18;1.10;;;0.70;;
21905;SDS011;11117;48.644;9.006;2023-12-20T02:36:43;1.10;;;0.70;;
21905;SDS011;11117;48.644;9.006;2023-12-20T02:39:09;2.03;;;0.73;;
21905;SDS011;11117;48.644;9.006;2023-12-20T02:41:34;0.80;;;0.63;;
21905;SDS011;11117;48.644;9.006;2023-12-20T02:44:01;0.70;;;0.60;;
21905;SDS011;11117;48.644;9.006;2023-12-20T02:46:27;0.53;;;0.50;;
21905;SDS011;11117;48.644;9.006;2023-12-20T02:48:52;3.23;;;0.63;;
21905;SDS011;11117;48.644;9.006;2023-12-20T02:51:18;0.73;;;0.70;;
21905;SDS011;11117;48.644;9.006;2023-12-20T02:53:43;0.73;;;0.50;;
21905;SDS011;11117;48.644;9.006;2023-12-20T02:56:09;0.30;;;0.30;;
21905;SDS011;11117;48.644;9.006;2023-12-20T02:58:35;0.50;;;0.30;;
21905;SDS011;11117;48.644;9.006;2023-12-20T03:01:00;0.87;;;0.43;;
21905;SDS011;11117;48.644;9.006;2023-12-20T03:03:26;1.87;;;0.90;;
21905;SDS011;11117;48.644;9.006;2023-12-20T03:05:53;2.07;;;1.03;;
21905;SDS011;11117;48.644;9.006;2023-12-20T03:08:18;0.33;;;0.30;;
21905;SDS011;11117;48.644;9.006;2023-12-20T03:10:44;1.27;;;0.80;;
21905;SDS011;11117;48.644;9.006;2023-12-20T03:13:10;3.00;;;0.30;;
21905;SDS011;11117;48.644;9.006;2023-12-20T03:15:35;0.60;;;0.20;;
21905;SDS011;11117;48.644;9.006;2023-12-20T03:18:01;0.20;;;0.20;;
21905;SDS011;11117;48.644;9.006;2023-12-20T03:20:26;0.30;;;0.30;;
21905;SDS011;11117;48.644;9.006;2023-12-20T03:22:52;0.67;;;0.27;;
21905;SDS011;11117;48.644;9.006;2023-12-20T03:25:17;0.40;;;0.20;;
21905;SDS011;11117;48.644;9.006;2023-12-20T03:27:43;0.67;;;0.27;;
21905;SDS011;11117;48.644;9.006;2023-12-20T03:30:08;0.50;;;0.10;;
21905;SDS011;11117;48.644;9.006;2023-12-20T03:32:34;1.00;;;0.20;;
21905;SDS011;11117;48.644;9.006;2023-12-20T03:35:00;0.63;;;0.30;;
21905;SDS011;11117;48.644;9.006;2023-12-20T03:37:27;0.30;;;0.30;;
21905;SDS011;11117;48.644;9.006;2023-12-20T03:39:53;0.30;;;0.30;;
21905;SDS011;11117;48.644;9.006;2023-12-20T03:42:18;0.20;;;0.20;;
21905;SDS011;11117;48.644;9.006;2023-12-20T03:44:44;0.40;;;0.20;;
21905;SDS011;11117;48.644;9.006;2023-12-20T03:47:10;0.83;;;0.20;;
21905;SDS011;11117;48.644;9.006;2023-12-20T03:49:35;1.40;;;0.23;;
21905;SDS011;11117;48.644;9.006;2023-12-20T03:52:01;0.47;;;0.20;;
21905;SDS011;11117;48.644;9.006;2023-12-20T03:54:26;0.23;;;0.10;;
21905;SDS011;11117;48.644;9.006;2023-12-20T03:56:52;0.10;;;0.10;;
21905;SDS011;11117;48.644;9.006;2023-12-20T03:59:17;0.30;;;0.17;;
21905;SDS011;11117;48.644;9.006;2023-12-20T04:01:43;0.10;;;0.10;;
21905;SDS011;11117;48.644;9.006;2023-12-20T04:04:09;1.03;;;0.20;;
21905;SDS011;11117;48.644;9.006;2023-12-20T04:06:34;1.70;;;0.20;;
21905;SDS011;11117;48.644;9.006;2023-12-20T04:09:00;0.20;;;0.20;;
21905;SDS011;11117;48.644;9.006;2023-12-20T04:11:25;0.90;;;0.20;;
21905;SDS011;11117;48.644;9.006;2023-12-20T04:13:52;0.13;;;0.10;;
21905;SDS011;11117;48.644;9.006;2023-12-20T04:16:18;0.17;;;0.10;;
21905;SDS011;11117;48.644;9.006;2023-12-20T04:18:43;0.20;;;0.20;;
21905;SDS011;11117;48.644;9.006;2023-12-20T04:21:09;0.10;;;0.10;;
21905;SDS011;11117;48.644;9.006;2023-12-20T04:23:34;0.30;;;0.10;;
21905;SDS011;11117;48.644;9.006;2023-12-20T04:26:00;0.30;;;0.00;;
21905;SDS011;11117;48.644;9.006;2023-12-20T04:28:25;0.30;;;0.20;;
21905;SDS011;11117;48.644;9.006;2023-12-20T04:30:51;0.30;;;0.20;;
21905;SDS011;11117;48.644;9.006;2023-12-20T04:33:17;0.83;;;0.10;;
21905;SDS011;11117;48.644;9.006;2023-12-20T04:35:42;0.20;;;0.20;;
21905;SDS011;11117;48.644;9.006;2023-12-20T04:38:08;0.20;;;0.20;;
21905;SDS011;11117;48.644;9.006;2023-12-20T04:40:34;0.60;;;0.20;;
21905;SDS011;11117;48.644;9.006;2023-12-20T04:42:59;0.20;;;0.20;;
21905;SDS011;11117;48.644;9.006;2023-12-20T04:45:25;0.20;;;0.20;;
21905;SDS011;11117;48.644;9.006;2023-12-20T04:47:51;0.20;;;0.20;;
21905;SDS011;11117;48.644;9.006;2023-12-20T04:50:16;0.40;;;0.40;;
21905;SDS011;11117;48.644;9.006;2023-12-20T04:52:42;0.60;;;0.60;;
21905;SDS011;11117;48.644;9.006;2023-12-20T04:55:08;0.30;;;0.30;;
21905;SDS011;11117;48.644;9.006;2023-12-20T04:57:34;0.30;;;0.30;;
21905;SDS011;11117;48.644;9.006;2023-12-20T05:00:00;0.40;;;0.40;;
21905;SDS011;11117;48.644;9.006;2023-12-20T05:02:28;0.93;;;0.30;;
21905;SDS011;11117;48.644;9.006;2023-12-20T05:04:53;0.30;;;0.30;;
21905;SDS011;11117;48.644;9.006;2023-12-20T05:07:20;0.20;;;0.20;;
21905;SDS011;11117;48.644;9.006;2023-12-20T05:09:46;0.30;;;0.10;;
21905;SDS011;11117;48.644;9.006;2023-12-20T05:12:12;0.60;;;0.20;;
21905;SDS011;11117;48.644;9.006;2023-12-20T05:14:37;0.20;;;0.20;;
21905;SDS011;11117;48.644;9.006;2023-12-20T05:17:03;0.10;;;0.10;;
21905;SDS011;11117;48.644;9.006;2023-12-20T05:19:29;0.17;;;0.17;;
21905;SDS011;11117;48.644;9.006;2023-12-20T05:21:54;0.37;;;0.27;;
21905;SDS011;11117;48.644;9.006;2023-12-20T05:24:20;0.30;;;0.30;;
21905;SDS011;11117;48.644;9.006;2023-12-20T05:26:46;0.20;;;0.20;;
21905;SDS011;11117;48.644;9.006;2023-12-20T05:29:11;0.30;;;0.30;;
21905;SDS011;11117;48.644;9.006;2023-12-20T05:31:37;1.17;;;0.30;;
21905;SDS011;11117;48.644;9.006;2023-12-20T05:34:03;0.40;;;0.20;;
21905;SDS011;11117;48.644;9.006;2023-12-20T05:36:28;2.27;;;0.73;;
21905;SDS011;11117;48.644;9.006;2023-12-20T05:38:54;0.20;;;0.20;;
21905;SDS011;11117;48.644;9.006;2023-12-20T05:41:19;0.47;;;0.20;;
21905;SDS011;11117;48.644;9.006;2023-12-20T05:43:45;0.20;;;0.20;;
21905;SDS011;11117;48.644;9.006;2023-12-20T05:46:10;2.00;;;0.20;;
21905;SDS011;11117;48.644;9.006;2023-12-20T05:48:36;1.17;;;0.20;;
21905;SDS011;11117;48.644;9.006;2023-12-20T05:51:02;0.30;;;0.30;;
21905;SDS011;11117;48.644;9.006;2023-12-20T05:53:28;0.80;;;0.40;;
21905;SDS011;11117;48.644;9.006;2023-12-20T05:55:53;0.70;;;0.53;;
21905;SDS011;11117;48.644;9.006;2023-12-20T05:58:19;0.70;;;0.50;;
21905;SDS011;11117;48.644;9.006;2023-12-20T06:00:44;0.70;;;0.40;;
21905;SDS011;11117;48.644;9.006;2023-12-20T06:03:10;0.70;;;0.40;;
21905;SDS011;11117;48.644;9.006;2023-12-20T06:05:35;0.40;;;0.37;;
21905;SDS011;11117;48.644;9.006;2023-12-20T06:08:01;1.50;;;0.40;;
21905;SDS011;11117;48.644;9.006;2023-12-20T06:10:27;1.40;;;1.30;;
21905;SDS011;11117;48.644;9.006;2023-12-20T06:12:52;2.67;;;2.30;;
21905;SDS011;11117;48.644;9.006;2023-12-20T06:15:18;3.00;;;2.63;;
21905;SDS011;11117;48.644;9.006;2023-12-20T06:17:43;1.63;;;1.30;;
21905;SDS011;11117;48.644;9.006;2023-12-20T06:20:09;3.00;;;2.53;;
21905;SDS011;11117;48.644;9.006;2023-12-20T06:22:35;4.07;;;3.70;;
21905;SDS011;11117;48.644;9.006;2023-12-20T06:25:01;5.00;;;3.10;;
21905;SDS011;11117;48.644;9.006;2023-12-20T06:27:29;3.17;;;2.87;;
21905;SDS011;11117;48.644;9.006;2023-12-20T06:29:54;5.10;;;4.60;;
21905;SDS011;11117;48.644;9.006;2023-12-20T06:32:21;3.70;;;2.07;;
21905;SDS011;11117;48.644;9.006;2023-12-20T06:34:46;2.50;;;2.00;;
21905;SDS011;11117;48.644;9.006;2023-12-20T06:37:12;1.80;;;1.33;;
21905;SDS011;11117;48.644;9.006;2023-12-20T06:39:37;4.43;;;1.77;;
21905;SDS011;11117;48.644;9.006;2023-12-20T06:42:03;7.37;;;6.57;;
21905;SDS011;11117;48.644;9.006;2023-12-20T06:44:28;8.37;;;7.33;;
21905;SDS011;11117;48.644;9.006;2023-12-20T06:46:54;3.90;;;3.50;;
21905;SDS011;11117;48.644;9.006;2023-12-20T06:49:19;1.20;;;1.10;;
21905;SDS011;11117;48.644;9.006;2023-12-20T06:51:45;1.20;;;0.80;;
21905;SDS011;11117;48.644;9.006;2023-12-20T06:54:11;0.60;;;0.60;;
21905;SDS011;11117;48.644;9.006;2023-12-20T06:56:36;2.27;;;0.57;;
21905;SDS011;11117;48.644;9.006;2023-12-20T06:59:02;2.07;;;1.63;;
21905;SDS011;11117;48.644;9.006;2023-12-20T07:01:27;0.87;;;0.87;;
21905;SDS011;11117;48.644;9.006;2023-12-20T07:03:53;1.00;;;0.90;;
21905;SDS011;11117;48.644;9.006;2023-12-20T07:06:18;1.00;;;0.80;;
21905;SDS011;11117;48.644;9.006;2023-12-20T07:08:44;1.43;;;1.00;;
21905;SDS011;11117;48.644;9.006;2023-12-20T07:11:09;1.53;;;0.57;;
21905;SDS011;11117;48.644;9.006;2023-12-20T07:13:35;1.60;;;0.90;;
21905;SDS011;11117;48.644;9.006;2023-12-20T07:16:00;1.27;;;1.10;;
21905;SDS011;11117;48.644;9.006;2023-12-20T07:18:26;2.00;;;1.30;;
21905;SDS011;11117;48.644;9.006;2023-12-20T07:20:51;2.00;;;1.60;;
21905;SDS011;11117;48.644;9.006;2023-12-20T07:23:18;1.60;;;1.40;;
21905;SDS011;11117;48.644;9.006;2023-12-20T07:25:44;1.13;;;1.03;;
21905;SDS011;11117;48.644;9.006;2023-12-20T07:28:10;0.60;;;0.40;;
21905;SDS011;11117;48.644;9.006;2023-12-20T07:30:35;2.70;;;1.60;;
21905;SDS011;11117;48.644;9.006;2023-12-20T07:33:02;1.23;;;0.90;;
21905;SDS011;11117;48.644;9.006;2023-12-20T07:35:29;2.17;;;1.37;;
21905;SDS011;11117;48.644;9.006;2023-12-20T07:37:54;2.10;;;1.83;;
21905;SDS011;11117;48.644;9.006;2023-12-20T07:40:20;1.63;;;0.70;;
21905;SDS011;11117;48.644;9.006;2023-12-20T07:42:45;3.57;;;2.47;;
21905;SDS011;11117;48.644;9.006;2023-12-20T07:45:11;2.13;;;1.80;;
21905;SDS011;11117;48.644;9.006;2023-12-20T07:47:37;3.23;;;2.30;;
21905;SDS011;11117;48.644;9.006;2023-12-20T07:50:02;2.30;;;1.73;;
21905;SDS011;11117;48.644;9.006;2023-12-20T07:52:29;2.37;;;1.63;;
21905;SDS011;11117;48.644;9.006;2023-12-20T07:54:54;3.10;;;2.17;;
21905;SDS011;11117;48.644;9.006;2023-12-20T07:57:20;4.17;;;2.63;;
21905;SDS011;11117;48.644;9.006;2023-12-20T07:59:46;5.63;;;3.13;;
21905;SDS011;11117;48.644;9.006;2023-12-20T08:02:12;5.43;;;3.37;;
21905;SDS011;11117;48.644;9.006;2023-12-20T08:04:37;5.77;;;2.80;;
21905;SDS011;11117;48.644;9.006;2023-12-20T08:07:03;10.80;;;4.90;;
21905;SDS011;11117;48.644;9.006;2023-12-20T08:09:29;7.73;;;4.73;;
21905;SDS011;11117;48.644;9.006;2023-12-20T08:11:54;6.47;;;4.00;;
21905;SDS011;11117;48.644;9.006;2023-12-20T08:14:21;4.73;;;2.97;;
21905;SDS011;11117;48.644;9.006;2023-12-20T08:16:46;4.13;;;3.63;;
21905;SDS011;11117;48.644;9.006;2023-12-20T08:19:12;5.37;;;4.33;;
21905;SDS011;11117;48.644;9.006;2023-12-20T08:21:38;4.57;;;3.27;;
21905;SDS011;11117;48.644;9.006;2023-12-20T08:24:03;3.40;;;2.80;;
21905;SDS011;11117;48.644;9.006;2023-12-20T08:26:29;5.67;;;3.33;;
21905;SDS011;11117;48.644;9.006;2023-12-20T08:28:54;3.63;;;3.00;;
21905;SDS011;11117;48.644;9.006;2023-12-20T08:31:20;2.23;;;1.77;;
21905;SDS011;11117;48.644;9.006;2023-12-20T08:33:46;1.67;;;1.50;;
21905;SDS011;11117;48.644;9.006;2023-12-20T08:36:13;2.50;;;2.30;;
21905;SDS011;11117;48.644;9.006;2023-12-20T08:38:39;2.73;;;2.23;;
21905;SDS011;11117;48.644;9.006;2023-12-20T08:41:04;3.33;;;2.93;;
21905;SDS011;11117;48.644;9.006;2023-12-20T08:43:31;4.43;;;2.43;;
21905;SDS011;11117;48.644;9.006;2023-12-20T08:45:56;1.90;;;1.60;;
21905;SDS011;11117;48.644;9.006;2023-12-20T08:48:22;5.07;;;1.40;;
21905;SDS011;11117;48.644;9.006;2023-12-20T08:50:47;2.63;;;1.70;;
21905;SDS011;11117;48.644;9.006;2023-12-20T08:53:13;1.37;;;1.27;;
21905;SDS011;11117;48.644;9.006;2023-12-20T08:55:39;2.87;;;1.50;;
21905;SDS011;11117;48.644;9.006;2023-12-20T08:58:04;5.10;;;2.03;;
21905;SDS011;11117;48.644;9.006;2023-12-20T09:00:30;2.43;;;1.63;;
21905;SDS011;11117;48.644;9.006;2023-12-20T09:02:55;5.73;;;1.90;;
21905;SDS011;11117;48.644;9.006;2023-12-20T09:05:21;5.93;;;1.80;;
21905;SDS011;11117;48.644;9.006;2023-12-20T09:07:46;4.50;;;1.77;;
21905;SDS011;11117;48.644;9.006;2023-12-20T09:10:12;3.80;;;1.53;;
21905;SDS011;11117;48.644;9.006;2023-12-20T09:12:38;3.30;;;1.80;;
21905;SDS011;11117;48.644;9.006;2023-12-20T09:15:04;3.20;;;1.50;;
21905;SDS011;11117;48.644;9.006;2023-12-20T09:17:29;5.53;;;1.80;;
21905;SDS011;11117;48.644;9.006;2023-12-20T09:19:55;4.30;;;1.50;;
21905;SDS011;11117;48.644;9.006;2023-12-20T09:22:21;4.63;;;1.63;;
21905;SDS011;11117;48.644;9.006;2023-12-20T09:24:46;4.07;;;1.73;;
21905;SDS011;11117;48.644;9.006;2023-12-20T09:27:12;6.63;;;1.50;;
21905;SDS011;11117;48.644;9.006;2023-12-20T09:29:37;2.47;;;1.47;;
21905;SDS011;11117;48.644;9.006;2023-12-20T09:32:03;5.73;;;1.50;;
21905;SDS011;11117;48.644;9.006;2023-12-20T09:34:29;4.10;;;1.73;;
21905;SDS011;11117;48.644;9.006;2023-12-20T09:36:54;5.73;;;2.60;;
21905;SDS011;11117;48.644;9.006;2023-12-20T09:39:20;7.23;;;3.10;;
21905;SDS011;11117;48.644;9.006;2023-12-20T09:41:49;8.50;;;2.20;;
21905;SDS011;11117;48.644;9.006;2023-12-20T09:44:30;5.90;;;2.10;;
21905;SDS011;11117;48.644;9.006;2023-12-20T09:46:56;5.77;;;1.87;;
21905;SDS011;11117;48.644;9.006;2023-12-20T09:49:22;7.60;;;2.30;;
21905;SDS011;11117;48.644;9.006;2023-12-20T09:51:50;8.37;;;1.83;;
21905;SDS011;11117;48.644;9.006;2023-12-20T09:54:16;6.57;;;1.90;;
21905;SDS011;11117;48.644;9.006;2023-12-20T09:56:43;8.70;;;1.90;;
21905;SDS011;11117;48.644;9.006;2023-12-20T09:59:09;6.77;;;1.67;;
21905;SDS011;11117;48.644;9.006;2023-12-20T10:01:35;6.80;;;2.03;;
21905;SDS011;11117;48.644;9.006;2023-12-20T10:04:05;5.30;;;1.60;;
21905;SDS011;11117;48.644;9.006;2023-12-20T10:06:32;7.13;;;1.30;;
21905;SDS011;11117;48.644;9.006;2023-12-20T10:08:58;3.00;;;1.20;;
21905;SDS011;11117;48.644;9.006;2023-12-20T10:11:24;7.63;;;1.33;;
21905;SDS011;11117;48.644;9.006;2023-12-20T10:13:50;8.07;;;1.67;;
21905;SDS011;11117;48.644;9.006;2023-12-20T10:16:15;6.67;;;2.20;;
21905;SDS011;11117;48.644;9.006;2023-12-20T10:18:41;5.53;;;2.37;;
21905;SDS011;11117;48.644;9.006;2023-12-20T10:21:06;9.90;;;2.23;;
21905;SDS011;11117;48.644;9.006;2023-12-20T10:23:32;6.80;;;2.10;;
21905;SDS011;11117;48.644;9.006;2023-12-20T10:25:58;7.60;;;1.90;;
21905;SDS011;11117;48.644;9.006;2023-12-20T10:28:24;6.17;;;1.73;;
21905;SDS011;11117;48.644;9.006;2023-12-20T10:30:50;5.70;;;2.00;;
21905;SDS011;11117;48.644;9.006;2023-12-20T10:33:25;8.90;;;1.43;;
21905;SDS011;11117;48.644;9.006;2023-12-20T10:35:52;4.73;;;1.57;;
21905;SDS011;11117;48.644;9.006;2023-12-20T10:38:18;5.07;;;1.73;;
21905;SDS011;11117;48.644;9.006;2023-12-20T10:40:44;4.27;;;1.63;;
21905;SDS011;11117;48.644;9.006;2023-12-20T10:43:10;4.33;;;1.43;;
21905;SDS011;11117;48.644;9.006;2023-12-20T10:45:36;5.43;;;1.60;;
21905;SDS011;11117;48.644;9.006;2023-12-20T10:48:02;8.00;;;1.90;;
21905;SDS011;11117;48.644;9.006;2023-12-20T10:50:29;6.27;;;1.60;;
21905;SDS011;11117;48.644;9.006;2023-12-20T10:52:55;8.83;;;1.43;;
21905;SDS011;11117;48.644;9.006;2023-12-20T10:55:22;5.97;;;1.60;;
21905;SDS011;11117;48.644;9.006;2023-12-20T10:57:49;7.20;;;1.43;;
21905;SDS011;11117;48.644;9.006;2023-12-20T11:00:41;3.73;;;1.20;;
21905;SDS011;11117;48.644;9.006;2023-12-20T11:03:10;3.43;;;1.37;;
21905;SDS011;11117;48.644;9.006;2023-12-20T11:06:26;6.43;;;1.80;;
21905;SDS011;11117;48.644;9.006;2023-12-20T11:14:46;5.17;;;1.30;;
21905;SDS011;11117;48.644;9.006;2023-12-20T11:17:14;8.13;;;1.77;;
21905;SDS011;11117;48.644;9.006;2023-12-20T11:22:17;9.60;;;1.60;;
21905;SDS011;11117;48.644;9.006;2023-12-20T11:24:46;7.40;;;1.80;;
21905;SDS011;11117;48.644;9.006;2023-12-20T11:27:13;1.93;;;0.97;;
21905;SDS011;11117;48.644;9.006;2023-12-20T11:29:39;8.40;;;2.80;;
21905;SDS011;11117;48.644;9.006;2023-12-20T11:32:48;6.30;;;2.77;;
21905;SDS011;11117;48.644;9.006;2023-12-20T11:34:58;12.20;;;3.73;;
21905;SDS011;11117;48.644;9.006;2023-12-20T11:37:41;6.40;;;2.70;;
21905;SDS011;11117;48.644;9.006;2023-12-20T11:40:07;9.97;;;2.83;;
21905;SDS011;11117;48.644;9.006;2023-12-20T11:42:39;5.80;;;1.30;;
21905;SDS011;11117;48.644;9.006;2023-12-20T11:45:08;6.67;;;1.83;;
21905;SDS011;11117;48.644;9.006;2023-12-20T11:47:38;9.53;;;1.70;;
21905;SDS011;11117;48.644;9.006;2023-12-20T11:50:04;8.53;;;1.97;;
21905;SDS011;11117;48.644;9.006;2023-12-20T11:52:30;5.47;;;1.63;;
21905;SDS011;11117;48.644;9.006;2023-12-20T11:54:56;4.40;;;1.77;;
21905;SDS011;11117;48.644;9.006;2023-12-20T11:57:25;8.13;;;2.17;;
21905;SDS011;11117;48.644;9.006;2023-12-20T11:59:51;4.93;;;1.70;;
21905;SDS011;11117;48.644;9.006;2023-12-20T12:02:17;7.10;;;1.60;;
21905;SDS011;11117;48.644;9.006;2023-12-20T12:04:42;4.27;;;1.60;;
21905;SDS011;11117;48.644;9.006;2023-12-20T12:07:08;6.43;;;1.90;;
21905;SDS011;11117;48.644;9.006;2023-12-20T12:09:34;6.90;;;1.63;;
21905;SDS011;11117;48.644;9.006;2023-12-20T12:12:00;3.63;;;1.47;;
21905;SDS011;11117;48.644;9.006;2023-12-20T12:14:26;9.50;;;1.87;;
21905;SDS011;11117;48.644;9.006;2023-12-20T12:16:52;10.80;;;2.70;;
21905;SDS011;11117;48.644;9.006;2023-12-20T12:19:24;6.80;;;2.33;;
21905;SDS011;11117;48.644;9.006;2023-12-20T12:21:51;8.63;;;1.87;;
21905;SDS011;11117;48.644;9.006;2023-12-20T12:24:36;6.40;;;2.40;;
21905;SDS011;11117;48.644;9.006;2023-12-20T12:27:02;7.23;;;1.80;;
21905;SDS011;11117;48.644;9.006;2023-12-20T12:29:27;7.13;;;2.40;;
21905;SDS011;11117;48.644;9.006;2023-12-20T12:31:53;10.27;;;2.10;;
21905;SDS011;11117;48.644;9.006;2023-12-20T12:34:19;4.73;;;1.97;;
21905;SDS011;11117;48.644;9.006;2023-12-20T12:36:44;5.03;;;1.70;;
21905;SDS011;11117;48.644;9.006;2023-12-20T12:39:13;9.40;;;2.50;;
21905;SDS011;11117;48.644;9.006;2023-12-20T12:41:39;5.43;;;3.20;;
21905;SDS011;11117;48.644;9.006;2023-12-20T12:44:05;7.60;;;1.70;;
21905;SDS011;11117;48.644;9.006;2023-12-20T12:46:30;7.77;;;1.67;;
21905;SDS011;11117;48.644;9.006;2023-12-20T12:48:56;2.97;;;1.50;;
21905;SDS011;11117;48.644;9.006;2023-12-20T12:51:21;6.17;;;1.93;;
21905;SDS011;11117;48.644;9.006;2023-12-20T12:53:47;6.27;;;1.93;;
21905;SDS011;11117;48.644;9.006;2023-12-20T12:56:12;3.37;;;1.27;;
21905;SDS011;11117;48.644;9.006;2023-12-20T12:58:38;5.30;;;1.53;;
21905;SDS011;11117;48.644;9.006;2023-12-20T13:01:04;6.40;;;1.57;;
21905;SDS011;11117;48.644;9.006;2023-12-20T13:03:30;5.23;;;1.43;;
21905;SDS011;11117;48.644;9.006;2023-12-20T13:05:55;6.63;;;1.30;;
21905;SDS011;11117;48.644;9.006;2023-12-20T13:08:21;5.20;;;1.20;;
21905;SDS011;11117;48.644;9.006;2023-12-20T13:10:46;7.80;;;1.43;;
21905;SDS011;11117;48.644;9.006;2023-12-20T13:13:12;4.83;;;1.30;;
21905;SDS011;11117;48.644;9.006;2023-12-20T13:15:38;5.03;;;1.67;;
21905;SDS011;11117;48.644;9.006;2023-12-20T13:18:03;6.47;;;1.70;;
21905;SDS011;11117;48.644;9.006;2023-12-20T13:20:29;9.07;;;1.67;;
21905;SDS011;11117;48.644;9.006;2023-12-20T13:22:55;5.87;;;1.60;;
21905;SDS011;11117;48.644;9.006;2023-12-20T13:25:20;6.07;;;1.93;;
21905;SDS011;11117;48.644;9.006;2023-12-20T13:27:46;7.40;;;1.27;;
21905;SDS011;11117;48.644;9.006;2023-12-20T13:30:11;5.40;;;1.40;;
21905;SDS011;11117;48.644;9.006;2023-12-20T13:32:37;12.80;;;2.07;;
21905;SDS011;11117;48.644;9.006;2023-12-20T13:35:03;10.33;;;1.60;;
21905;SDS011;11117;48.644;9.006;2023-12-20T13:37:29;5.90;;;1.10;;
21905;SDS011;11117;48.644;9.006;2023-12-20T13:39:54;3.63;;;1.27;;
21905;SDS011;11117;48.644;9.006;2023-12-20T13:42:20;5.03;;;1.50;;
21905;SDS011;11117;48.644;9.006;2023-12-20T13:44:45;4.57;;;1.40;;
21905;SDS011;11117;48.644;9.006;2023-12-20T13:47:11;6.57;;;1.40;;
21905;SDS011;11117;48.644;9.006;2023-12-20T13:49:36;7.53;;;1.40;;
21905;SDS011;11117;48.644;9.006;2023-12-20T13:52:02;14.40;;;1.50;;
21905;SDS011;11117;48.644;9.006;2023-12-20T13:54:28;6.70;;;1.53;;
21905;SDS011;11117;48.644;9.006;2023-12-20T13:56:53;8.43;;;1.73;;
21905;SDS011;11117;48.644;9.006;2023-12-20T13:59:19;13.37;;;3.20;;
21905;SDS011;11117;48.644;9.006;2023-12-20T14:01:44;8.77;;;2.53;;
21905;SDS011;11117;48.644;9.006;2023-12-20T14:04:10;4.83;;;1.90;;
21905;SDS011;11117;48.644;9.006;2023-12-20T14:06:35;7.37;;;1.80;;
21905;SDS011;11117;48.644;9.006;2023-12-20T14:09:01;5.00;;;1.60;;
21905;SDS011;11117;48.644;9.006;2023-12-20T14:11:26;7.30;;;1.87;;
21905;SDS011;11117;48.644;9.006;2023-12-20T14:13:52;5.33;;;1.40;;
21905;SDS011;11117;48.644;9.006;2023-12-20T14:16:17;8.27;;;1.57;;
21905;SDS011;11117;48.644;9.006;2023-12-20T14:18:43;6.57;;;1.70;;
21905;SDS011;11117;48.644;9.006;2023-12-20T14:21:08;5.90;;;1.70;;
21905;SDS011;11117;48.644;9.006;2023-12-20T14:23:34;3.73;;;1.13;;
21905;SDS011;11117;48.644;9.006;2023-12-20T14:25:59;6.63;;;1.50;;
21905;SDS011;11117;48.644;9.006;2023-12-20T14:28:25;9.77;;;1.77;;
21905;SDS011;11117;48.644;9.006;2023-12-20T14:30:51;5.70;;;1.60;;
21905;SDS011;11117;48.644;9.006;2023-12-20T14:33:17;10.60;;;2.00;;
21905;SDS011;11117;48.644;9.006;2023-12-20T14:35:42;7.23;;;1.80;;
21905;SDS011;11117;48.644;9.006;2023-12-20T14:38:08;3.67;;;1.13;;
21905;SDS011;11117;48.644;9.006;2023-12-20T14:40:33;7.67;;;1.83;;
21905;SDS011;11117;48.644;9.006;2023-12-20T14:42:59;4.40;;;1.50;;
21905;SDS011;11117;48.644;9.006;2023-12-20T14:45:24;8.80;;;2.10;;
21905;SDS011;11117;48.644;9.006;2023-12-20T14:47:50;5.77;;;2.00;;
21905;SDS011;11117;48.644;9.006;2023-12-20T14:50:15;7.77;;;2.40;;